Home > Products > Valid Products > TAF

000
FTUS43 KLMK 252300
TAFBWG
TAF
KBWG 252323Z 2600/2624 25012KT P6SM VCTS BKN035CB
      TEMPO 2600/2602 3SM TSRA BR BKN020CB
     FM260400 30012KT P6SM VCSH BKN020
     FM260700 34007KT 5SM BR OVC009
     FM261900 36009KT P6SM BKN015=



000
FTUS43 KLMK 252300
TAFLEX
TAF
KLEX 252323Z 2600/2624 07010KT P6SM VCTS BKN005 BKN012CB
      TEMPO 2600/2602 4SM -TSRA BKN007CB
     FM260400 05011KT 5SM BR VCSH OVC008
     FM261200 03011KT P6SM OVC015
     FM262100 03010KT P6SM BKN035=



000
FTUS43 KLMK 252300
TAFSDF
TAF
KSDF 252323Z 2600/2706 02010KT P6SM VCTS BKN010 BKN015CB
      TEMPO 2600/2602 5SM SHRA BR BKN008
     FM260200 02008KT P6SM VCSH OVC008
     FM261000 01011KT P6SM OVC015
     FM262200 02009KT P6SM BKN035=



000
FTUS43 KLMK 252200 AAB
TAFSDF
TAF AMD
KSDF 252222Z 2522/2624 04012KT P6SM VCTS BKN008 BKN015CB
     FM260000 02010KT P6SM VCTS BKN008 BKN015CB
     FM260300 02008KT P6SM VCSH OVC008
     FM261000 01011KT P6SM OVC015
     FM261600 02009KT P6SM BKN035=



000
FTUS43 KLMK 252200 AAA
TAFLEX
TAF AMD
KLEX 252221Z 2522/2618 05012KT P6SM BKN005 OVC010
     FM260000 07010KT P6SM VCTS SCT005 BKN012CB
     FM260400 05011KT 5SM BR VCSH OVC008
     FM261200 03011KT P6SM OVC015
     FM261600 03010KT P6SM BKN035=



000
FTUS43 KLMK 252200 AAA
TAFBWG
TAF AMD
KBWG 252202Z 2522/2618 20014KT P6SM SCT025 BKN035
     FM260000 25012KT P6SM VCTS BKN035CB
      TEMPO 2600/2602 3SM -TSRA BR BKN020CB
     FM260400 30012KT P6SM VCSH BKN020
     FM260700 34007KT 5SM BR OVC009
     FM261600 03007KT P6SM BKN015=



000
FTUS43 KLMK 252100 AAA
TAFSDF
TAF AMD
KSDF 252137Z 2522/2624 04012KT P6SM VCSH BKN008 BKN015
     FM260000 02010KT P6SM VCTS BKN008 BKN015CB
     FM260300 02008KT P6SM VCSH OVC008
     FM261000 01011KT P6SM OVC015
     FM261600 02009KT P6SM BKN035=



000
FTUS43 KLMK 251700
TAFBWG
TAF
KBWG 251726Z 2518/2618 20010KT P6SM BKN025
     FM260000 25012KT P6SM VCTS BKN035CB
     FM260400 30012KT P6SM VCSH BKN020
     FM260700 34007KT 5SM BR OVC009
     FM261600 03007KT P6SM BKN015=



000
FTUS43 KLMK 251700
TAFLEX
TAF
KLEX 251726Z 2518/2618 09007KT P6SM VCSH BKN005 OVC010
     FM252300 08010KT P6SM VCTS SCT005 BKN012CB
     FM260400 05011KT 5SM BR VCSH OVC008
     FM261200 03011KT P6SM OVC015
     FM261600 03010KT P6SM BKN035=



000
FTUS43 KLMK 251700
TAFSDF
TAF
KSDF 251726Z 2518/2624 13007KT P6SM VCSH BKN006 OVC015
     FM252200 04007KT P6SM VCTS SCT008 BKN015CB
     FM260300 02008KT P6SM VCSH OVC008
     FM261000 01011KT P6SM OVC015
     FM261600 02009KT P6SM BKN035=



000
FTUS43 KLMK 251700
TAFLEX
TAF
KLEX 251726Z 2518/2618 09007KT P6SM VCSH BKN005 OVC010
     FM252300 08010KT P6SM VCTS SCT005 BKN012CB
     FM260400 05011KT 5SM BR VCSH OVC008
     FM261200 03011KT P6SM OVC015
     FM261600 03010KT P6SM BKN035=



000
FTUS43 KLMK 251700
TAFSDF
TAF
KSDF 251726Z 2518/2624 13007KT P6SM VCSH BKN006 OVC015
     FM252200 04007KT P6SM VCTS SCT008 BKN015CB
     FM260300 02008KT P6SM VCSH OVC008
     FM261000 01011KT P6SM OVC015
     FM261600 02009KT P6SM BKN035=



000
FTUS43 KLMK 251700
TAFBWG
TAF
KBWG 251726Z 2518/2618 20010KT P6SM BKN025
     FM260000 25012KT P6SM VCTS BKN035CB
     FM260400 30012KT P6SM VCSH BKN020
     FM260700 34007KT 5SM BR OVC009
     FM261600 03007KT P6SM BKN015=



000
FTUS43 KLMK 251300 AAA
TAFSDF
TAF AMD
KSDF 251323Z 2513/2618 11009KT 5SM -SHRA VCTS BKN012CB
      TEMPO 2513/2517 1SM SHRA BKN009
     FM251700 09007KT P6SM VCSH BKN015
     FM252300 06007KT P6SM VCTS BKN015CB
     FM260300 04013KT P6SM VCSH BKN012=



000
FTUS43 KLMK 251300 AAA
TAFSDF
TAF AMD
KSDF 251323Z 2513/2618 11009KT 5SM -SHRA VCTS BKN012CB
      TEMPO 2513/2517 1SM SHRA BKN009
     FM251700 09007KT P6SM VCSH BKN015
     FM252300 06007KT P6SM VCTS BKN015CB
     FM260300 04013KT P6SM VCSH BKN012=



000
FTUS43 KLMK 251100 RRA
TAFSDF
TAF
KSDF 251148Z 2512/2618 09008KT 5SM -SHRA BKN015
     FM251400 10009KT 5SM -SHRA VCTS BKN012CB
      TEMPO 2515/2519 BKN009CB
     FM251900 09007KT P6SM VCSH BKN015
     FM252300 06007KT P6SM VCTS BKN015CB
     FM260300 04013KT P6SM VCSH BKN012=



000
FTUS43 KLMK 251100 RRA
TAFLEX
TAF
KLEX 251148Z 2512/2612 12010KT 6SM -SHRA BKN025
     FM251400 10008KT 5SM -SHRA VCTS BKN012CB
     FM251700 09007KT 5SM BR VCSH BKN009
     FM252300 08010KT P6SM VCTS BKN012CB
     FM260400 05011KT P6SM VCSH BKN010=



000
FTUS43 KLMK 251100 RRA
TAFBWG
TAF
KBWG 251148Z 2512/2612 13009KT 5SM -SHRA VCTS BKN015CB
      TEMPO 2512/2516 BKN009CB
     FM251600 20013KT P6SM SCT035
     FM251800 24014G25KT P6SM BKN035
     FM260000 25012KT P6SM VCTS BKN035CB
     FM260600 30012KT P6SM VCSH BKN012=



000
FTUS43 KLMK 250500 RRA
TAFLEX
TAF
KLEX 250544Z 2506/2606 12005KT P6SM VCSH BKN050
     FM250900 14005KT 5SM -SHRA BKN040
     FM251200 12010KT 4SM -SHRA VCTS BKN015CB
     FM251600 10008KT P6SM VCSH BKN012
      TEMPO 2516/2520 P6SM BKN009
     FM260000 08010KT P6SM VCTS BKN010CB
     FM260400 05011KT P6SM VCSH BKN010=



000
FTUS43 KLMK 250500 RRA
TAFBWG
TAF
KBWG 250544Z 2506/2606 17005KT 6SM -SHRA BKN035
     FM250900 17010KT 5SM -SHRA VCTS BKN015CB
      TEMPO 2512/2516 BKN009CB
     FM251600 20013KT P6SM SCT035
     FM252000 23014G25KT P6SM VCTS BKN035CB=



000
FTUS43 KLMK 250500 RRA
TAFSDF
TAF
KSDF 250544Z 2506/2612 14006KT P6SM VCSH BKN050
     FM251000 12008KT 4SM -SHRA VCTS BKN015CB
     FM251500 09009KT P6SM VCSH BKN015
      TEMPO 2515/2519 BKN009
     FM252300 06007KT P6SM VCTS BKN015CB
     FM260300 04013KT P6SM VCSH BKN012=



000
FTUS43 KLMK 242300
TAFLEX
TAF
KLEX 242320Z 2500/2524 13004KT P6SM SCT090 OVC150
     FM250800 14005KT P6SM VCSH BKN050
     FM251000 14008KT 4SM -SHRA VCTS BKN015CB
     FM251700 18009KT P6SM VCSH BKN020=



000
FTUS43 KLMK 242300
TAFSDF
TAF
KSDF 242320Z 2500/2606 14008KT P6SM BKN090 OVC150
     FM250700 13005KT P6SM VCSH BKN050
     FM251000 14008KT 4SM -SHRA VCTS BKN015CB
     FM251700 18009KT P6SM BKN020
     FM252300 23012G18KT P6SM VCTS BKN025CB=



000
FTUS43 KLMK 242300
TAFBWG
TAF
KBWG 242320Z 2500/2524 10004KT P6SM VCSH SCT060 OVC150
     FM250300 17004KT P6SM BKN050
     FM250600 17005KT 5SM -SHRA VCTS BKN015CB
     FM251400 20012G20KT P6SM BKN035=



000
FTUS43 KLMK 242000 AAA
TAFSDF
TAF AMD
KSDF 242008Z 2420/2524 15007KT P6SM BKN200
     FM250500 13005KT P6SM VCSH BKN050
     FM251000 13007KT 5SM -SHRA BKN025
     FM251200 15010KT 4SM SHRA BR BKN012=



000
FTUS43 KLMK 241700
TAFBWG
TAF
KBWG 241729Z 2418/2518 11007KT P6SM BKN150
     FM250100 13004KT P6SM VCSH BKN050
     FM250700 16006KT 5SM -SHRA BKN015
     FM251500 19011KT P6SM BKN015=



000
FTUS43 KLMK 241700
TAFLEX
TAF
KLEX 241729Z 2418/2518 19006KT P6SM BKN250
     FM250200 12005KT P6SM BKN050
     FM251000 11007KT P6SM -SHRA BKN025
     FM251500 15012KT 5SM -SHRA BKN015=



000
FTUS43 KLMK 241700
TAFSDF
TAF
KSDF 241729Z 2418/2524 VRB04KT P6SM BKN250
     FM242100 15007KT P6SM BKN100
     FM250500 13005KT P6SM VCSH BKN050
     FM251000 13007KT 5SM -SHRA BKN025
     FM251200 15010KT 4SM SHRA BR BKN012=



000
FTUS43 KLMK 241700
TAFBWG
TAF
KBWG 241729Z 2418/2518 11007KT P6SM BKN150
     FM250100 13004KT P6SM VCSH BKN050
     FM250700 16006KT 5SM -SHRA BKN015
     FM251500 19011KT P6SM BKN015=



000
FTUS43 KLMK 241700
TAFLEX
TAF
KLEX 241729Z 2418/2518 19006KT P6SM BKN250
     FM250200 12005KT P6SM BKN050
     FM251000 11007KT P6SM -SHRA BKN025
     FM251500 15012KT 5SM -SHRA BKN015=



000
FTUS43 KLMK 241700
TAFSDF
TAF
KSDF 241729Z 2418/2524 VRB04KT P6SM BKN250
     FM242100 15007KT P6SM BKN100
     FM250500 13005KT P6SM VCSH BKN050
     FM251000 13007KT 5SM -SHRA BKN025
     FM251200 15010KT 4SM SHRA BR BKN012=



000
FTUS43 KLMK 241100
TAFLEX
TAF
KLEX 241122Z 2412/2512 VRB03KT P6SM SKC
     FM241800 19005KT P6SM SCT100
     FM250200 12005KT P6SM BKN050
     FM251000 11007KT P6SM VCSH BKN025=



000
FTUS43 KLMK 241100
TAFBWG
TAF
KBWG 241122Z 2412/2512 00000KT P6SM SCT250
     FM241700 11006KT P6SM BKN080
     FM242200 13005KT P6SM BKN050
     FM250900 16006KT 5SM -SHRA BKN015=



000
FTUS43 KLMK 241100
TAFSDF
TAF
KSDF 241122Z 2412/2518 VRB03KT P6SM SKC
     FM242000 15006KT P6SM BKN070
     FM250900 13007KT 5SM -SHRA BKN025
     FM251200 15010KT 3SM SHRA BR BKN010=



000
FTUS43 KLMK 241100
TAFLEX
TAF
KLEX 241122Z 2412/2512 VRB03KT P6SM SKC
     FM241800 19005KT P6SM SCT100
     FM250200 12005KT P6SM BKN050
     FM251000 11007KT P6SM VCSH BKN025=



000
FTUS43 KLMK 241100
TAFSDF
TAF
KSDF 241122Z 2412/2518 VRB03KT P6SM SKC
     FM242000 15006KT P6SM BKN070
     FM250900 13007KT 5SM -SHRA BKN025
     FM251200 15010KT 3SM SHRA BR BKN010=



000
FTUS43 KLMK 241100
TAFBWG
TAF
KBWG 241122Z 2412/2512 00000KT P6SM SCT250
     FM241700 11006KT P6SM BKN080
     FM242200 13005KT P6SM BKN050
     FM250900 16006KT 5SM -SHRA BKN015=



000
FTUS43 KLMK 240500
TAFSDF
TAF
KSDF 240524Z 2406/2512 VRB03KT P6SM SKC
     FM242000 15006KT P6SM BKN070
     FM250900 13007KT 5SM -SHRA BKN025=



000
FTUS43 KLMK 240500
TAFLEX
TAF
KLEX 240524Z 2406/2506 VRB03KT P6SM SKC
     FM241800 19005KT P6SM SCT100
     FM242300 12005KT P6SM BKN070=



000
FTUS43 KLMK 240500
TAFBWG
TAF
KBWG 240524Z 2406/2506 00000KT P6SM SCT250
     FM241700 11006KT P6SM BKN080
     FM242200 13005KT P6SM BKN050=



000
FTUS43 KLMK 240500
TAFSDF
TAF
KSDF 240524Z 2406/2512 VRB03KT P6SM SKC
     FM242000 15006KT P6SM BKN070
     FM250900 13007KT 5SM -SHRA BKN025=



000
FTUS43 KLMK 240500
TAFLEX
TAF
KLEX 240524Z 2406/2506 VRB03KT P6SM SKC
     FM241800 19005KT P6SM SCT100
     FM242300 12005KT P6SM BKN070=



000
FTUS43 KLMK 240500
TAFBWG
TAF
KBWG 240524Z 2406/2506 00000KT P6SM SCT250
     FM241700 11006KT P6SM BKN080
     FM242200 13005KT P6SM BKN050=



000
FTUS43 KLMK 232300
TAFLEX
TAF
KLEX 232320Z 2400/2424 30010KT P6SM SKC
     FM240200 27004KT P6SM SKC
     FM241500 15005KT P6SM SCT070 BKN150=



000
FTUS43 KLMK 232300
TAFBWG
TAF
KBWG 232320Z 2400/2424 34004KT P6SM SKC
     FM241500 11005KT P6SM SCT070 BKN150=



000
FTUS43 KLMK 232300
TAFSDF
TAF
KSDF 232320Z 2400/2506 30010KT P6SM SKC
     FM240200 31004KT P6SM SKC
     FM241500 13004KT P6SM SCT070 BKN150=



000
FTUS43 KLMK 231700
TAFBWG
TAF
KBWG 231720Z 2318/2418 32009KT P6SM SKC
     FM240100 00000KT P6SM FEW250
     FM241500 11006KT P6SM SCT070 BKN150=



000
FTUS43 KLMK 231700
TAFSDF
TAF
KSDF 231720Z 2318/2424 29012G21KT P6SM SKC
     FM240000 VRB03KT P6SM FEW250
     FM241500 12004KT P6SM SCT070 BKN150=



000
FTUS43 KLMK 231700
TAFLEX
TAF
KLEX 231720Z 2318/2418 30014G23KT P6SM SKC
     FM240000 VRB03KT P6SM FEW250
     FM241500 15005KT P6SM SCT070 BKN150=



000
FTUS43 KLMK 231700
TAFLEX
TAF
KLEX 231720Z 2318/2418 30014G23KT P6SM SKC
     FM240000 VRB03KT P6SM FEW250
     FM241500 15005KT P6SM SCT070 BKN150=



000
FTUS43 KLMK 231700
TAFBWG
TAF
KBWG 231720Z 2318/2418 32009KT P6SM SKC
     FM240100 00000KT P6SM FEW250
     FM241500 11006KT P6SM SCT070 BKN150=



000
FTUS43 KLMK 231700
TAFSDF
TAF
KSDF 231720Z 2318/2424 29012G21KT P6SM SKC
     FM240000 VRB03KT P6SM FEW250
     FM241500 12004KT P6SM SCT070 BKN150=



000
FTUS43 KLMK 231100
TAFBWG
TAF
KBWG 231120Z 2312/2412 00000KT P6SM FEW100
     FM231400 32008G15KT P6SM SCT100
     FM232200 34003KT P6SM SKC=



000
FTUS43 KLMK 231100
TAFLEX
TAF
KLEX 231120Z 2312/2412 26005KT P6SM SKC
     FM231400 29014G23KT P6SM SKC
     FM240000 VRB03KT P6SM SKC=



000
FTUS43 KLMK 231100
TAFBWG
TAF
KBWG 231120Z 2312/2412 00000KT P6SM FEW100
     FM231400 32008G15KT P6SM SCT100
     FM232200 34003KT P6SM SKC=



000
FTUS43 KLMK 231100
TAFSDF
TAF
KSDF 231120Z 2312/2418 27006KT P6SM SKC
     FM231400 29012G21KT P6SM SKC
     FM240000 VRB03KT P6SM SKC=



000
FTUS43 KLMK 231100
TAFLEX
TAF
KLEX 231120Z 2312/2412 26005KT P6SM SKC
     FM231400 29014G23KT P6SM SKC
     FM240000 VRB03KT P6SM SKC=



000
FTUS43 KLMK 231100
TAFSDF
TAF
KSDF 231120Z 2312/2418 27006KT P6SM SKC
     FM231400 29012G21KT P6SM SKC
     FM240000 VRB03KT P6SM SKC=



000
FTUS43 KLMK 230500
TAFSDF
TAF
KSDF 230520Z 2306/2412 27006KT P6SM SKC
     FM231300 29012G21KT P6SM SKC
     FM240000 30003KT P6SM SKC=



000
FTUS43 KLMK 230500
TAFLEX
TAF
KLEX 230520Z 2306/2406 27004KT P6SM SKC
     FM231300 29014G23KT P6SM SKC
     FM240000 30003KT P6SM SKC=



000
FTUS43 KLMK 230500
TAFBWG
TAF
KBWG 230520Z 2306/2406 00000KT P6SM FEW100
     FM231300 32008G15KT P6SM SCT100
     FM232100 34003KT P6SM SKC=



000
FTUS43 KLMK 230500
TAFSDF
TAF
KSDF 230520Z 2306/2412 27006KT P6SM SKC
     FM231300 29012G21KT P6SM SKC
     FM240000 30003KT P6SM SKC=



000
FTUS43 KLMK 230500
TAFBWG
TAF
KBWG 230520Z 2306/2406 00000KT P6SM FEW100
     FM231300 32008G15KT P6SM SCT100
     FM232100 34003KT P6SM SKC=



000
FTUS43 KLMK 230500
TAFLEX
TAF
KLEX 230520Z 2306/2406 27004KT P6SM SKC
     FM231300 29014G23KT P6SM SKC
     FM240000 30003KT P6SM SKC=



000
FTUS43 KLMK 230100 AAA
TAFLEX
TAF AMD
KLEX 230116Z 2301/2324 29007KT P6SM FEW250
     FM230300 24005KT P6SM SKC
     FM231300 29012KT P6SM SKC=



    US Dept of Commerce
    National Oceanic and Atmospheric Administration
    National Weather Service
    1325 East West Highway
    Silver Spring, MD 20910
    Page Author: NWS Internet Services Team
Disclaimer
Information Quality
Credits
Glossary
Privacy Policy
Freedom of Information Act (FOIA)
About Us
Career Opportunities